Terminal Aerodrome Forecast
Issued by NWS

Home | Current Version | Previous Version | Text Only | Print | Product List | Glossary On
Versions: 1 2 3 4 5 6 7 8 9 10 11 12 13 14 15 16 17 18 19 20
000
FTAK31 PAJN 271100
TAFAYA
TAF
PAYA 271139Z 2712/2812 00000KT 5SM BR BCFG FEW001 BKN040
      TEMPO 2712/2716 2SM BR BCFG
     FM271600 12005KT P6SM FEW005 BKN060
     FM272100 12005KT P6SM VCSH BKN040
     FM280900 12007KT 5SM -RA OVC040
      AMD LTD TO CLD VIS AND WIND 2801/2810=

USA.gov is the U.S. government's official web portal to all federal, state and local government web resources and services.